Hit Tracker is now ESPN Home Run Tracker! Hit Tracker founder Greg Rybarczyk is now collaborating with the ESPN Stats & Information Group to continue tracking all MLB home runs, and helping baseball fans know "How Far It Really Went!™" Please credit any information on this site to ESPN Stats & Information Group. For more information and analysis on home runs, please contact founder Greg Rybarczyk. E-Mail ESPN Home Run Tracker
Main Page | Ballparks | Park Overlays | Glossary | Highlight Homers | Feedback | Bio | 3 Types of HR's | AAA Home Run Derby Last Updated: July 9, 2014, 11:39 pm PST
Welcome to the ESPN Home Run Tracker! Check out the ESPN MLB Scoreboard throughout the 2014 season! Contact us at grybar@hittrackeronline.com.
Season:
Ballpark detail for U.S. Cellular Field
Ballpark # of Home Runs HR per game Avg.
True
Distance
Avg.
Speed
Off
Bat
Avg.
Std.
Dist.
U.S. Cellular Field 81 1.80 392.5 103.9 393.5

Scatter Plot of Home Runs U.S. Cellular Field
 Overlay Ballpark:
Without range rings   With range rings

2014 Season Home Runs for U.S. Cellular Field
Click headers to sort
Date Video Path Hitter Hitter
Team
Pitcher Pitcher
Team
INN Ballpark Type/
Luck
True
Dist.
Speed
Off
Bat
Elev.
Angle
Horiz.
Angle
Apex Impact Due To: Std.
Dist.
#
Parks
Wind Temp. Alt. ^
04/16/14 Video View Ramirez, Alexei CHW Buchholz, Clay BOS 6 U.S. Cellula... PL 358 97.6 30.2 116.8 84 -2 -4 -3 363 25
03/31/14 Video View De Aza, Alejandro CHW Nolasco, Ricky MIN 6 U.S. Cellula... JE/L 381 103.9 22.5 75.7 60 0 0 0 381 10
04/02/14 Video View Dunn, Adam CHW Burton, Jared MIN 8 U.S. Cellula... JE 413 104.1 23.1 89.3 83 1 -1 0 414 19
04/10/14 Video View Ramirez, Alexei CHW Salazar, Danny CLE 3 U.S. Cellula... PL 375 106.1 22.8 113.1 58 0 -1 0 376 18
04/12/14 Video View Eaton, Adam CHW Masterson, Justin CLE 2 U.S. Cellula... PL 414 110.9 22.0 74.4 64 0 0 0 413 29
04/13/14 Video View Semien, Marcus CHW Kluber, Corey CLE 8 U.S. Cellula... PL 390 107.5 23.2 110.7 66 -1 -2 0 392 30
04/25/14 Video View Abreu, Jose CHW Balfour, Grant TB 9 U.S. Cellula... JE 378 103.1 23.2 74.2 62 0 0 0 378 12
04/28/14 Video View De Aza, Alejandro CHW Odorizzi, Jake TB 2 U.S. Cellula... PL 407 104.6 22.8 83.7 77 0 -1 0 408 26
05/08/14 Video View Rizzo, Anthony CHC Carroll, Scott CHW 3 U.S. Cellula... JE 415 104.7 22.7 92.7 74 1 1 0 413 16
05/08/14 Video View Olt, Mike CHC Cleto, Maikel CHW 8 U.S. Cellula... ND 418 113.2 21.7 107.6 64 0 1 0 417 30
05/09/14 Video View Parra, Gerardo ARI Rienzo, Andre CHW 3 U.S. Cellula... PL 410 108.4 20.5 82.2 64 2 0 0 407 24
05/11/14 Video View Parra, Gerardo ARI Noesi, Hector CHW 5 U.S. Cellula... JE 382 100.6 25.9 74.0 73 0 1 0 381 20
07/01/14 Video View Pujols, Albert LAA Noesi, Hector CHW 5 U.S. Cellula... PL 425 104.7 24.7 88.4 87 -1 1 0 424 26
07/01/14 Video View Calhoun, Kole LAA Carroll, Scott CHW 5 U.S. Cellula... PL 395 105.2 24.7 71.1 70 -1 0 0 395 29
07/04/14 Video View Abreu, Jose CHW Elias, Roenis SEA 5 U.S. Cellula... JE 394 109.3 19.9 101.6 55 1 0 0 393 11
05/30/14 Video View Alonso, Yonder SD Guerra, Javy CHW 8 U.S. Cellula... JE 353 102.0 24.1 60.7 57 0 -1 1 353 14
06/01/14 Video View Flowers, Tyler CHW Stults, Eric SD 5 U.S. Cellula... JE 382 98.0 29.2 103.4 91 -4 2 1 381 15
05/30/14 Video View Maybin, Cameron SD Danks, John CHW 3 U.S. Cellula... ND 416 107.7 25.1 106.2 81 -1 0 1 417 30
05/28/14 Video View Giambi, Jason CLE Noesi, Hector CHW 2 U.S. Cellula... PL 373 105.6 24.8 57.8 62 -1 -1 1 374 30
04/03/14 Video View Dunn, Adam CHW Hughes, Phil MIN 5 U.S. Cellula... PL 386 106.8 25.4 61.3 69 -1 -3 1 389 30
04/03/14 Video View Pinto, Josmil MIN Belisario, Ronald CHW 8 U.S. Cellula... PL 362 101.1 26.6 118.4 69 -1 -3 1 365 25
04/03/14 Video View Semien, Marcus CHW Thielbar, Caleb MIN 8 U.S. Cellula... PL 384 105.4 25.8 113.2 79 -6 -3 1 394 30
04/10/14 Video View Abreu, Jose CHW Salazar, Danny CLE 2 U.S. Cellula... PL 439 107.6 25.8 95.0 99 -2 -2 1 442 30
04/10/14 Video View Cabrera, Asdrubal CLE Danks, John CHW 3 U.S. Cellula... PL 399 101.6 26.3 99.9 85 -1 -2 1 401 24
04/10/14 Video View Abreu, Jose CHW Outman, Josh CLE 5 U.S. Cellula... PL 398 109.0 23.6 112.6 67 -1 -1 1 399 30
04/12/14 Video View Murphy, David CLE Paulino, Felipe CHW 2 U.S. Cellula... PL 366 104.5 25.0 54.8 61 -1 0 1 366 29
04/12/14 Video View Kipnis, Jason CLE Paulino, Felipe CHW 5 U.S. Cellula... PL 383 104.7 27.2 57.5 73 0 1 1 382 30
04/13/14 Video View Brantley, Michael CLE Quintana, Jose CHW 4 U.S. Cellula... PL 371 105.6 23.0 65.4 58 0 -1 1 372 22
04/13/14 Video View Ramirez, Alexei CHW Axford, John CLE 9 U.S. Cellula... JE 354 96.9 31.2 112.4 95 -8 -4 1 364 23
04/15/14 Video View Dunn, Adam CHW Peavy, Jake BOS 2 U.S. Cellula... JE 356 96.6 29.9 66.3 82 -1 -4 1 360 19
04/25/14 Video View Longoria, Evan TB Lindstrom, Matt CHW 9 U.S. Cellula... JE 414 101.3 27.4 91.0 89 4 -1 1 410 16
04/27/14 Video View Abreu, Jose CHW Price, David TB 6 U.S. Cellula... PL 405 104.5 28.3 100.6 112 -13 -3 1 420 30
05/07/14 Video View Beckham, Gordon CHW Wood, Travis CHC 4 U.S. Cellula... PL 418 104.2 24.5 93.0 84 0 -1 1 419 22
05/07/14 Video View Olt, Mike CHC Danks, John CHW 5 U.S. Cellula... ND 394 107.0 25.2 114.6 71 -1 -2 1 396 30
05/08/14 Video View Castro, Starlin CHC Carroll, Scott CHW 4 U.S. Cellula... PL 415 105.9 24.5 101.2 80 0 1 1 414 30
05/09/14 Video View Ramirez, Alexei CHW McCarthy, Brandon ARI 4 U.S. Cellula... PL 374 105.8 23.5 116.7 60 0 0 1 374 25
05/10/14 Video View Konerko, Paul CHW Miley, Wade ARI 5 U.S. Cellula... PL 394 107.0 25.1 115.1 71 -1 -1 1 395 30
05/11/14 Video View Sierra, Moises CHW Anderson, Chase ARI 6 U.S. Cellula... PL 372 100.5 26.5 112.8 70 0 1 1 370 18
05/23/14 Video View McCann, Brian NYY Noesi, Hector CHW 1 U.S. Cellula... JE 388 108.8 20.4 76.1 54 0 0 1 388 15
05/23/14 Video View Ramirez, Alexei CHW Kuroda, Hiroki NYY 5 U.S. Cellula... PL 384 100.1 27.0 103.9 83 -1 -1 1 386 21
06/09/14 Video View Suarez, Eugenio DET Noesi, Hector CHW 5 U.S. Cellula... JE 384 98.8 28.9 101.8 94 -3 -2 1 387 18
06/09/14 Video View Abreu, Jose CHW Porcello, Rick DET 5 U.S. Cellula... PL 420 104.9 25.0 96.5 86 0 -1 1 421 28
06/09/14 Video View Martinez, Victor DET Noesi, Hector CHW 6 U.S. Cellula... ND 396 107.3 24.7 67.0 71 -2 -1 1 398 30
06/11/14 Video View Abreu, Jose CHW Verlander, Justin DET 2 U.S. Cellula... PL 417 103.2 27.2 95.3 98 -1 -2 1 418 26
06/12/14 Video View Martinez, Victor DET Sale, Chris CHW 5 U.S. Cellula... JE 351 106.9 21.5 126.9 47 0 0 1 351 10
06/14/14 Video View Moustakas, Mike KC Downs, Scott CHW 8 U.S. Cellula... ND 392 104.7 28.3 62.5 83 -2 0 1 393 30
06/14/14 Video View Butler, Billy KC Webb, Daniel CHW 9 U.S. Cellula... PL 397 105.1 23.1 77.2 67 -1 0 1 396 25
06/14/14 Video View Konerko, Paul CHW Mariot, Michael KC 9 U.S. Cellula... JE 390 99.5 27.7 100.4 90 -3 0 1 392 14
06/15/14 Video View Hosmer, Eric KC Rienzo, Andre CHW 1 U.S. Cellula... PL 429 107.2 22.5 92.8 75 0 0 1 428 25
06/17/14 Video View Pence, Hunter SF Danks, John CHW 1 U.S. Cellula... PL 398 105.3 23.8 105.2 70 0 0 1 397 29
06/17/14 Video View Beckham, Gordon CHW Cain, Matt SF 3 U.S. Cellula... PL 386 99.2 30.4 103.6 101 -5 1 1 388 24
06/18/14 Video View Abreu, Jose CHW Hudson, Tim SF 1 U.S. Cellula... PL 377 108.3 22.3 116.3 56 0 0 1 377 26
06/18/14 Video View Dunn, Adam CHW Hudson, Tim SF 5 U.S. Cellula... PL 399 103.2 25.6 76.5 78 -1 0 1 399 28
07/01/14 Video View Abreu, Jose CHW Richards, Garrett LAA 1 U.S. Cellula... PL 376 106.5 24.4 57.4 61 -1 1 1 376 30
07/01/14 Video View Hamilton, Josh LAA Belisario, Ronald CHW 7 U.S. Cellula... JE 392 99.3 28.7 80.1 94 -4 1 1 393 22
06/01/14 Video View Konerko, Paul CHW Stults, Eric SD 2 U.S. Cellula... PL 370 98.7 31.8 116.2 94 -4 3 2 369 29
06/01/14 Video View Headley, Chase SD Sale, Chris CHW 5 U.S. Cellula... ND 424 107.6 31.1 107.8 119 -6 5 2 423 30
05/26/14 Video View Viciedo, Dayan CHW Tomlin, Josh CLE 3 U.S. Cellula... ND 429 108.8 29.0 108.8 106 -6 3 2 429 30
05/25/14 Video View Roberts, Brian NYY Carroll, Scott CHW 8 U.S. Cellula... PL 383 100.0 34.3 76.3 124 -6 1 2 385 27
05/23/14 Video View Dunn, Adam CHW Robertson, David NYY 9 U.S. Cellula... ND 435 107.4 29.7 80.4 119 0 -4 2 437 30
04/03/14 Video View De Aza, Alejandro CHW Hughes, Phil MIN 2 U.S. Cellula... PL 395 103.6 30.5 72.0 108 -5 -6 2 405 30
04/12/14 Video View Swisher, Nick CLE Paulino, Felipe CHW 5 U.S. Cellula... PL 389 100.1 33.1 76.3 117 -3 1 2 388 27
04/15/14 Video View Nava, Daniel BOS Johnson, Erik CHW 4 U.S. Cellula... ND 414 107.2 29.9 71.6 110 -2 -8 2 422 30
04/17/14 Video View Bogaerts, Xander BOS Sale, Chris CHW 6 U.S. Cellula... ND 437 109.4 28.9 105.9 110 0 -3 2 437 30
04/25/14 Video View Abreu, Jose CHW Archer, Chris TB 3 U.S. Cellula... JE 406 101.2 30.3 91.7 115 -6 0 2 411 19
05/09/14 Video View Abreu, Jose CHW Cahill, Trevor ARI 7 U.S. Cellula... PL 443 107.4 28.5 90.3 119 -4 -1 2 446 30
06/09/14 Video View Cabrera, Miguel DET Noesi, Hector CHW 4 U.S. Cellula... PL 424 106.7 29.7 100.8 120 -7 -3 2 432 30
06/15/14 Video View Perez, Salvador KC Rienzo, Andre CHW 3 U.S. Cellula... ND 408 104.8 29.2 108.7 100 -5 2 2 409 30
06/17/14 Video View Viciedo, Dayan CHW Cain, Matt SF 5 U.S. Cellula... ND 416 105.3 31.1 107.5 112 0 1 2 413 30
07/01/14 Video View Trout, Mike LAA Noesi, Hector CHW 5 U.S. Cellula... PL 346 95.7 32.9 119.6 93 -9 2 2 351 24
07/01/14 Video View Gillaspie, Conor CHW Weaver, Jered LAA 2 U.S. Cellula... JE 343 95.2 37.4 61.4 112 -1 2 2 340 20
07/01/14 Video View Viciedo, Dayan CHW Weaver, Jered LAA 6 U.S. Cellula... ND 407 105.5 29.5 112.7 97 -2 1 2 407 30
07/02/14 Video View Freese, David LAA Danks, John CHW 7 U.S. Cellula... PL 395 100.4 30.2 78.9 104 -2 -2 2 398 25
07/04/14 Video View Viciedo, Dayan CHW Elias, Roenis SEA 4 U.S. Cellula... PL 405 103.3 31.3 99.2 124 -13 1 2 414 30
05/27/14 Video View Beckham, Gordon CHW Lowe, Mark CLE 5 U.S. Cellula... PL 383 101.3 34.2 109.9 120 0 -3 3 383 30
05/24/14 Video View Ellsbury, Jacoby NYY Putnam, Zach CHW 10 U.S. Cellula... JE 350 96.6 37.2 68.0 122 -2 -1 3 350 14
05/09/14 Video View Flowers, Tyler CHW Thatcher, Joe ARI 8 U.S. Cellula... PL 378 105.3 33.3 116.1 122 -21 -2 3 398 30
05/11/14 Video View Montero, Miguel ARI Francisco, Frank CHW 9 U.S. Cellula... PL 361 98.6 37.8 70.9 133 -2 4 3 356 13
07/02/14 Video View Hamilton, Josh LAA Danks, John CHW 8 U.S. Cellula... PL 374 100.6 34.8 70.5 123 -4 -3 3 379 29
07/04/14 Video View Konerko, Paul CHW Furbush, Charlie SEA 8 U.S. Cellula... PL 364 100.9 36.1 115.0 126 -8 0 3 369 30
03/31/14 Video View De Aza, Alejandro CHW Nolasco, Ricky MIN 2 U.S. Cellula... PL/L 378 100.3 41.7 60.0 139 52 -3 4 326 2


About HitTracker | Contact Us
© 2006-2009 HitTrackerOnline